sensor_id;sensor_type;location;lat;lon;timestamp;temperature;humidity
19279;DHT22;9773;47.062;15.446;2023-07-16T00:00:08;22.50;99.90
19279;DHT22;9773;47.062;15.446;2023-07-16T00:02:34;22.50;99.90
19279;DHT22;9773;47.062;15.446;2023-07-16T00:05:00;22.50;99.90
19279;DHT22;9773;47.062;15.446;2023-07-16T00:07:25;22.40;99.90
19279;DHT22;9773;47.062;15.446;2023-07-16T00:09:53;22.40;99.90
19279;DHT22;9773;47.062;15.446;2023-07-16T00:12:18;22.30;99.90
19279;DHT22;9773;47.062;15.446;2023-07-16T00:14:44;22.20;99.90
19279;DHT22;9773;47.062;15.446;2023-07-16T00:17:10;22.10;99.90
19279;DHT22;9773;47.062;15.446;2023-07-16T00:19:36;22.10;99.90
19279;DHT22;9773;47.062;15.446;2023-07-16T00:22:02;22.10;99.90
19279;DHT22;9773;47.062;15.446;2023-07-16T00:24:28;22.10;99.90
19279;DHT22;9773;47.062;15.446;2023-07-16T00:26:57;22.10;99.90
19279;DHT22;9773;47.062;15.446;2023-07-16T00:29:23;22.10;99.90
19279;DHT22;9773;47.062;15.446;2023-07-16T00:31:49;22.10;99.90
19279;DHT22;9773;47.062;15.446;2023-07-16T00:34:15;22.10;99.90
19279;DHT22;9773;47.062;15.446;2023-07-16T00:36:41;22.20;99.90
19279;DHT22;9773;47.062;15.446;2023-07-16T00:39:06;22.20;99.90
19279;DHT22;9773;47.062;15.446;2023-07-16T00:41:32;22.10;99.90
19279;DHT22;9773;47.062;15.446;2023-07-16T00:43:58;22.10;99.90
19279;DHT22;9773;47.062;15.446;2023-07-16T00:46:24;22.00;99.90
19279;DHT22;9773;47.062;15.446;2023-07-16T00:48:51;22.00;99.90
19279;DHT22;9773;47.062;15.446;2023-07-16T00:51:18;22.00;99.90
19279;DHT22;9773;47.062;15.446;2023-07-16T00:53:46;21.90;99.90
19279;DHT22;9773;47.062;15.446;2023-07-16T00:56:16;21.80;99.90
19279;DHT22;9773;47.062;15.446;2023-07-16T00:58:42;21.80;99.90
19279;DHT22;9773;47.062;15.446;2023-07-16T01:01:09;21.80;99.90
19279;DHT22;9773;47.062;15.446;2023-07-16T01:03:35;21.90;99.90
19279;DHT22;9773;47.062;15.446;2023-07-16T01:06:16;21.90;99.90
19279;DHT22;9773;47.062;15.446;2023-07-16T01:08:54;21.90;99.90
19279;DHT22;9773;47.062;15.446;2023-07-16T01:11:23;21.90;99.90
19279;DHT22;9773;47.062;15.446;2023-07-16T01:13:52;21.90;99.90
19279;DHT22;9773;47.062;15.446;2023-07-16T01:16:22;21.90;99.90
19279;DHT22;9773;47.062;15.446;2023-07-16T01:18:48;21.90;99.90
19279;DHT22;9773;47.062;15.446;2023-07-16T01:21:16;21.90;99.90
19279;DHT22;9773;47.062;15.446;2023-07-16T01:24:00;21.90;99.90
19279;DHT22;9773;47.062;15.446;2023-07-16T01:26:39;21.90;99.90
19279;DHT22;9773;47.062;15.446;2023-07-16T01:29:29;21.80;99.90
19279;DHT22;9773;47.062;15.446;2023-07-16T01:32:03;21.70;99.90
19279;DHT22;9773;47.062;15.446;2023-07-16T01:34:33;21.70;99.90
19279;DHT22;9773;47.062;15.446;2023-07-16T01:37:01;21.60;99.90
19279;DHT22;9773;47.062;15.446;2023-07-16T01:39:30;21.60;99.90
19279;DHT22;9773;47.062;15.446;2023-07-16T01:41:56;21.60;99.90
19279;DHT22;9773;47.062;15.446;2023-07-16T01:44:22;21.60;99.90
19279;DHT22;9773;47.062;15.446;2023-07-16T01:49:33;21.50;99.90
19279;DHT22;9773;47.062;15.446;2023-07-16T01:52:00;21.40;99.90
19279;DHT22;9773;47.062;15.446;2023-07-16T01:54:29;21.40;99.90
19279;DHT22;9773;47.062;15.446;2023-07-16T01:56:55;21.40;99.90
19279;DHT22;9773;47.062;15.446;2023-07-16T01:59:22;21.30;99.90
19279;DHT22;9773;47.062;15.446;2023-07-16T02:01:48;21.30;99.90
19279;DHT22;9773;47.062;15.446;2023-07-16T02:04:13;21.20;99.90
19279;DHT22;9773;47.062;15.446;2023-07-16T02:06:39;21.10;99.90
19279;DHT22;9773;47.062;15.446;2023-07-16T02:09:05;21.00;99.90
19279;DHT22;9773;47.062;15.446;2023-07-16T02:11:30;21.00;99.90
19279;DHT22;9773;47.062;15.446;2023-07-16T02:13:56;20.90;99.90
19279;DHT22;9773;47.062;15.446;2023-07-16T02:16:22;20.90;99.90
19279;DHT22;9773;47.062;15.446;2023-07-16T02:18:48;21.00;99.90
19279;DHT22;9773;47.062;15.446;2023-07-16T02:21:14;21.00;99.90
19279;DHT22;9773;47.062;15.446;2023-07-16T02:23:39;21.10;99.90
19279;DHT22;9773;47.062;15.446;2023-07-16T02:26:05;21.10;99.90
19279;DHT22;9773;47.062;15.446;2023-07-16T02:28:31;21.00;99.90
19279;DHT22;9773;47.062;15.446;2023-07-16T02:30:57;21.00;99.90
19279;DHT22;9773;47.062;15.446;2023-07-16T02:33:24;21.00;99.90
19279;DHT22;9773;47.062;15.446;2023-07-16T02:35:50;21.00;99.90
19279;DHT22;9773;47.062;15.446;2023-07-16T02:38:17;21.00;99.90
19279;DHT22;9773;47.062;15.446;2023-07-16T02:40:47;21.00;99.90
19279;DHT22;9773;47.062;15.446;2023-07-16T02:43:14;21.10;99.90
19279;DHT22;9773;47.062;15.446;2023-07-16T02:45:40;21.10;99.90
19279;DHT22;9773;47.062;15.446;2023-07-16T02:48:06;21.00;99.90
19279;DHT22;9773;47.062;15.446;2023-07-16T02:50:36;21.00;99.90
19279;DHT22;9773;47.062;15.446;2023-07-16T02:53:05;21.00;99.90
19279;DHT22;9773;47.062;15.446;2023-07-16T02:55:33;20.90;99.90
19279;DHT22;9773;47.062;15.446;2023-07-16T02:58:01;20.80;99.90
19279;DHT22;9773;47.062;15.446;2023-07-16T03:00:30;20.90;99.90
19279;DHT22;9773;47.062;15.446;2023-07-16T03:02:56;20.90;99.90
19279;DHT22;9773;47.062;15.446;2023-07-16T03:05:24;20.80;99.90
19279;DHT22;9773;47.062;15.446;2023-07-16T03:07:52;20.80;99.90
19279;DHT22;9773;47.062;15.446;2023-07-16T03:10:18;20.80;99.90
19279;DHT22;9773;47.062;15.446;2023-07-16T03:12:44;20.80;99.90
19279;DHT22;9773;47.062;15.446;2023-07-16T03:15:10;20.80;99.90
19279;DHT22;9773;47.062;15.446;2023-07-16T03:17:35;20.80;99.90
19279;DHT22;9773;47.062;15.446;2023-07-16T03:20:02;20.80;99.90
19279;DHT22;9773;47.062;15.446;2023-07-16T03:22:29;20.80;99.90
19279;DHT22;9773;47.062;15.446;2023-07-16T03:24:55;20.80;99.90
19279;DHT22;9773;47.062;15.446;2023-07-16T03:27:21;20.90;99.90
19279;DHT22;9773;47.062;15.446;2023-07-16T03:29:48;20.90;99.90
19279;DHT22;9773;47.062;15.446;2023-07-16T03:32:13;21.00;99.90
19279;DHT22;9773;47.062;15.446;2023-07-16T03:34:39;21.00;99.90
19279;DHT22;9773;47.062;15.446;2023-07-16T03:37:05;21.00;99.90
19279;DHT22;9773;47.062;15.446;2023-07-16T03:39:31;21.00;99.90
19279;DHT22;9773;47.062;15.446;2023-07-16T03:41:57;21.00;99.90
19279;DHT22;9773;47.062;15.446;2023-07-16T03:44:22;20.90;99.90
19279;DHT22;9773;47.062;15.446;2023-07-16T03:46:48;20.90;99.90
19279;DHT22;9773;47.062;15.446;2023-07-16T03:49:15;20.90;99.90
19279;DHT22;9773;47.062;15.446;2023-07-16T03:51:41;20.90;99.90
19279;DHT22;9773;47.062;15.446;2023-07-16T03:54:07;20.90;99.90
19279;DHT22;9773;47.062;15.446;2023-07-16T03:56:33;21.00;99.90
19279;DHT22;9773;47.062;15.446;2023-07-16T03:58:58;20.90;99.90
19279;DHT22;9773;47.062;15.446;2023-07-16T04:01:24;20.90;99.90
19279;DHT22;9773;47.062;15.446;2023-07-16T04:03:50;20.90;99.90
19279;DHT22;9773;47.062;15.446;2023-07-16T04:06:17;20.80;99.90
19279;DHT22;9773;47.062;15.446;2023-07-16T04:08:43;20.80;99.90
19279;DHT22;9773;47.062;15.446;2023-07-16T04:11:09;20.80;99.90
19279;DHT22;9773;47.062;15.446;2023-07-16T04:13:34;20.80;99.90
19279;DHT22;9773;47.062;15.446;2023-07-16T04:16:00;20.80;99.90
19279;DHT22;9773;47.062;15.446;2023-07-16T04:18:26;20.80;99.90
19279;DHT22;9773;47.062;15.446;2023-07-16T04:20:52;20.80;99.90
19279;DHT22;9773;47.062;15.446;2023-07-16T04:23:19;20.70;99.90
19279;DHT22;9773;47.062;15.446;2023-07-16T04:25:47;20.70;99.90
19279;DHT22;9773;47.062;15.446;2023-07-16T04:28:16;20.80;99.90
19279;DHT22;9773;47.062;15.446;2023-07-16T04:30:42;20.80;99.90
19279;DHT22;9773;47.062;15.446;2023-07-16T04:33:08;20.80;99.90
19279;DHT22;9773;47.062;15.446;2023-07-16T04:35:36;20.80;99.90
19279;DHT22;9773;47.062;15.446;2023-07-16T04:38:03;20.90;99.90
19279;DHT22;9773;47.062;15.446;2023-07-16T04:40:29;20.90;99.90
19279;DHT22;9773;47.062;15.446;2023-07-16T04:42:56;20.90;99.90
19279;DHT22;9773;47.062;15.446;2023-07-16T04:45:22;21.00;99.90
19279;DHT22;9773;47.062;15.446;2023-07-16T04:47:49;21.00;99.90
19279;DHT22;9773;47.062;15.446;2023-07-16T04:50:14;21.10;99.90
19279;DHT22;9773;47.062;15.446;2023-07-16T04:52:41;21.20;99.90
19279;DHT22;9773;47.062;15.446;2023-07-16T04:55:07;21.20;99.90
19279;DHT22;9773;47.062;15.446;2023-07-16T04:57:33;21.30;99.90
19279;DHT22;9773;47.062;15.446;2023-07-16T04:59:59;21.40;99.90
19279;DHT22;9773;47.062;15.446;2023-07-16T05:02:25;21.40;99.90
19279;DHT22;9773;47.062;15.446;2023-07-16T05:04:51;21.60;99.90
19279;DHT22;9773;47.062;15.446;2023-07-16T05:07:17;21.60;99.90
19279;DHT22;9773;47.062;15.446;2023-07-16T05:09:43;21.70;99.90
19279;DHT22;9773;47.062;15.446;2023-07-16T05:12:09;21.80;99.90
19279;DHT22;9773;47.062;15.446;2023-07-16T05:14:44;21.90;99.90
19279;DHT22;9773;47.062;15.446;2023-07-16T05:17:11;21.90;99.90
19279;DHT22;9773;47.062;15.446;2023-07-16T05:19:38;22.00;99.90
19279;DHT22;9773;47.062;15.446;2023-07-16T05:22:03;22.10;99.90
19279;DHT22;9773;47.062;15.446;2023-07-16T05:24:32;22.10;99.90
19279;DHT22;9773;47.062;15.446;2023-07-16T05:26:57;22.30;99.90
19279;DHT22;9773;47.062;15.446;2023-07-16T05:29:23;22.30;99.90
19279;DHT22;9773;47.062;15.446;2023-07-16T05:31:49;22.40;99.90
19279;DHT22;9773;47.062;15.446;2023-07-16T05:34:17;22.50;99.90
19279;DHT22;9773;47.062;15.446;2023-07-16T05:36:46;22.60;99.90
19279;DHT22;9773;47.062;15.446;2023-07-16T05:39:12;22.70;99.90
19279;DHT22;9773;47.062;15.446;2023-07-16T05:41:39;22.80;99.90
19279;DHT22;9773;47.062;15.446;2023-07-16T05:44:07;23.00;99.90
19279;DHT22;9773;47.062;15.446;2023-07-16T05:46:33;23.10;99.90
19279;DHT22;9773;47.062;15.446;2023-07-16T05:49:00;23.20;99.90
19279;DHT22;9773;47.062;15.446;2023-07-16T05:51:26;23.40;99.90
19279;DHT22;9773;47.062;15.446;2023-07-16T05:53:51;23.40;99.90
19279;DHT22;9773;47.062;15.446;2023-07-16T05:56:19;23.60;99.90
19279;DHT22;9773;47.062;15.446;2023-07-16T05:58:44;23.60;99.90
19279;DHT22;9773;47.062;15.446;2023-07-16T06:01:10;23.70;99.90
19279;DHT22;9773;47.062;15.446;2023-07-16T06:03:36;23.80;99.90
19279;DHT22;9773;47.062;15.446;2023-07-16T06:06:03;23.90;99.90
19279;DHT22;9773;47.062;15.446;2023-07-16T06:08:29;23.90;99.90
19279;DHT22;9773;47.062;15.446;2023-07-16T06:10:55;24.00;99.90
19279;DHT22;9773;47.062;15.446;2023-07-16T06:13:21;24.10;99.90
19279;DHT22;9773;47.062;15.446;2023-07-16T06:15:47;24.20;99.90
19279;DHT22;9773;47.062;15.446;2023-07-16T06:18:15;24.40;99.90
19279;DHT22;9773;47.062;15.446;2023-07-16T06:20:46;24.50;99.90
19279;DHT22;9773;47.062;15.446;2023-07-16T06:23:12;24.60;99.90
19279;DHT22;9773;47.062;15.446;2023-07-16T06:25:39;24.70;99.90
19279;DHT22;9773;47.062;15.446;2023-07-16T06:28:11;24.80;99.90
19279;DHT22;9773;47.062;15.446;2023-07-16T06:30:39;24.90;99.90
19279;DHT22;9773;47.062;15.446;2023-07-16T06:33:04;25.10;99.90
19279;DHT22;9773;47.062;15.446;2023-07-16T06:35:30;25.20;99.90
19279;DHT22;9773;47.062;15.446;2023-07-16T06:38:00;25.20;99.90
19279;DHT22;9773;47.062;15.446;2023-07-16T06:40:28;25.30;99.90
19279;DHT22;9773;47.062;15.446;2023-07-16T06:42:53;25.40;99.90
19279;DHT22;9773;47.062;15.446;2023-07-16T06:45:20;25.50;99.90
19279;DHT22;9773;47.062;15.446;2023-07-16T06:47:48;25.60;99.90
19279;DHT22;9773;47.062;15.446;2023-07-16T06:50:13;25.80;99.90
19279;DHT22;9773;47.062;15.446;2023-07-16T06:52:40;25.90;99.90
19279;DHT22;9773;47.062;15.446;2023-07-16T06:55:06;26.00;99.90
19279;DHT22;9773;47.062;15.446;2023-07-16T06:57:32;26.00;99.90
19279;DHT22;9773;47.062;15.446;2023-07-16T06:59:58;26.10;99.90
19279;DHT22;9773;47.062;15.446;2023-07-16T07:02:24;26.10;99.90
19279;DHT22;9773;47.062;15.446;2023-07-16T07:04:51;26.20;99.90
19279;DHT22;9773;47.062;15.446;2023-07-16T07:07:17;26.40;99.90
19279;DHT22;9773;47.062;15.446;2023-07-16T07:09:47;26.50;99.90
19279;DHT22;9773;47.062;15.446;2023-07-16T07:12:14;26.60;99.90
19279;DHT22;9773;47.062;15.446;2023-07-16T07:14:39;26.70;99.90
19279;DHT22;9773;47.062;15.446;2023-07-16T07:17:05;26.90;99.90
19279;DHT22;9773;47.062;15.446;2023-07-16T07:19:31;27.10;99.90
19279;DHT22;9773;47.062;15.446;2023-07-16T07:21:58;27.20;99.90
19279;DHT22;9773;47.062;15.446;2023-07-16T07:24:23;27.40;99.90
19279;DHT22;9773;47.062;15.446;2023-07-16T07:26:49;27.50;99.90
19279;DHT22;9773;47.062;15.446;2023-07-16T07:29:15;27.60;99.90
19279;DHT22;9773;47.062;15.446;2023-07-16T07:31:41;27.70;99.90
19279;DHT22;9773;47.062;15.446;2023-07-16T07:34:06;27.60;99.90
19279;DHT22;9773;47.062;15.446;2023-07-16T07:36:32;27.60;99.90
19279;DHT22;9773;47.062;15.446;2023-07-16T07:38:58;27.70;99.80
19279;DHT22;9773;47.062;15.446;2023-07-16T07:41:24;27.80;99.60
19279;DHT22;9773;47.062;15.446;2023-07-16T07:43:51;27.80;99.20
19279;DHT22;9773;47.062;15.446;2023-07-16T07:46:16;27.80;99.00
19279;DHT22;9773;47.062;15.446;2023-07-16T07:48:42;27.80;98.70
19279;DHT22;9773;47.062;15.446;2023-07-16T07:51:08;27.80;98.60
19279;DHT22;9773;47.062;15.446;2023-07-16T07:53:35;28.10;98.70
19279;DHT22;9773;47.062;15.446;2023-07-16T07:56:00;28.10;98.80
19279;DHT22;9773;47.062;15.446;2023-07-16T07:58:28;28.30;98.10
19279;DHT22;9773;47.062;15.446;2023-07-16T08:00:54;28.50;97.30
19279;DHT22;9773;47.062;15.446;2023-07-16T08:03:19;28.60;96.90
19279;DHT22;9773;47.062;15.446;2023-07-16T08:05:50;28.50;97.00
19279;DHT22;9773;47.062;15.446;2023-07-16T08:08:15;28.60;97.40
19279;DHT22;9773;47.062;15.446;2023-07-16T08:10:42;28.70;97.20
19279;DHT22;9773;47.062;15.446;2023-07-16T08:13:08;28.70;96.30
19279;DHT22;9773;47.062;15.446;2023-07-16T08:15:34;28.80;96.40
19279;DHT22;9773;47.062;15.446;2023-07-16T08:18:00;28.80;96.40
19279;DHT22;9773;47.062;15.446;2023-07-16T08:20:26;28.80;95.90
19279;DHT22;9773;47.062;15.446;2023-07-16T08:22:52;28.80;96.30
19279;DHT22;9773;47.062;15.446;2023-07-16T08:25:18;28.80;95.80
19279;DHT22;9773;47.062;15.446;2023-07-16T08:27:44;28.80;96.20
19279;DHT22;9773;47.062;15.446;2023-07-16T08:30:10;28.90;96.20
19279;DHT22;9773;47.062;15.446;2023-07-16T08:32:35;28.90;96.00
19279;DHT22;9773;47.062;15.446;2023-07-16T08:35:01;28.90;95.90
19279;DHT22;9773;47.062;15.446;2023-07-16T08:37:27;28.90;95.80
19279;DHT22;9773;47.062;15.446;2023-07-16T08:39:53;29.10;95.60
19279;DHT22;9773;47.062;15.446;2023-07-16T08:42:20;29.10;95.00
19279;DHT22;9773;47.062;15.446;2023-07-16T08:44:48;29.10;95.60
19279;DHT22;9773;47.062;15.446;2023-07-16T08:47:16;29.10;95.10
19279;DHT22;9773;47.062;15.446;2023-07-16T08:49:55;29.10;95.70
19279;DHT22;9773;47.062;15.446;2023-07-16T08:52:21;29.10;95.00
19279;DHT22;9773;47.062;15.446;2023-07-16T08:54:47;29.10;95.20
19279;DHT22;9773;47.062;15.446;2023-07-16T08:57:14;29.10;94.60
19279;DHT22;9773;47.062;15.446;2023-07-16T08:59:40;29.10;94.80
19279;DHT22;9773;47.062;15.446;2023-07-16T09:02:06;29.20;94.70
19279;DHT22;9773;47.062;15.446;2023-07-16T09:04:32;29.20;94.70
19279;DHT22;9773;47.062;15.446;2023-07-16T09:06:58;29.20;94.80
19279;DHT22;9773;47.062;15.446;2023-07-16T09:09:24;29.20;94.70
19279;DHT22;9773;47.062;15.446;2023-07-16T09:11:51;29.20;94.70
19279;DHT22;9773;47.062;15.446;2023-07-16T09:14:20;29.30;94.80
19279;DHT22;9773;47.062;15.446;2023-07-16T09:16:50;29.30;94.30
19279;DHT22;9773;47.062;15.446;2023-07-16T09:19:16;29.30;94.30
19279;DHT22;9773;47.062;15.446;2023-07-16T09:21:46;29.30;94.30
19279;DHT22;9773;47.062;15.446;2023-07-16T09:24:12;29.30;94.40
19279;DHT22;9773;47.062;15.446;2023-07-16T09:26:38;29.60;95.90
19279;DHT22;9773;47.062;15.446;2023-07-16T09:29:08;29.60;96.20
19279;DHT22;9773;47.062;15.446;2023-07-16T09:31:34;29.70;96.30
19279;DHT22;9773;47.062;15.446;2023-07-16T09:33:59;29.80;96.40
19279;DHT22;9773;47.062;15.446;2023-07-16T09:36:25;29.80;96.20
19279;DHT22;9773;47.062;15.446;2023-07-16T09:38:53;29.80;96.10
19279;DHT22;9773;47.062;15.446;2023-07-16T09:41:21;29.90;96.20
19279;DHT22;9773;47.062;15.446;2023-07-16T09:43:47;29.80;96.60
19279;DHT22;9773;47.062;15.446;2023-07-16T09:46:13;29.80;97.80
19279;DHT22;9773;47.062;15.446;2023-07-16T09:48:39;30.00;95.60
19279;DHT22;9773;47.062;15.446;2023-07-16T09:51:07;30.10;95.40
19279;DHT22;9773;47.062;15.446;2023-07-16T09:53:35;30.20;94.90
19279;DHT22;9773;47.062;15.446;2023-07-16T09:56:02;30.20;95.70
19279;DHT22;9773;47.062;15.446;2023-07-16T09:58:30;30.30;95.90
19279;DHT22;9773;47.062;15.446;2023-07-16T10:00:58;30.40;95.50
19279;DHT22;9773;47.062;15.446;2023-07-16T10:03:24;30.30;95.20
19279;DHT22;9773;47.062;15.446;2023-07-16T10:05:50;30.30;95.80
19279;DHT22;9773;47.062;15.446;2023-07-16T10:08:20;30.40;96.40
19279;DHT22;9773;47.062;15.446;2023-07-16T10:10:54;30.40;96.20
19279;DHT22;9773;47.062;15.446;2023-07-16T10:13:23;30.50;95.90
19279;DHT22;9773;47.062;15.446;2023-07-16T10:15:56;30.60;94.60
19279;DHT22;9773;47.062;15.446;2023-07-16T10:18:27;30.80;95.80
19279;DHT22;9773;47.062;15.446;2023-07-16T10:21:01;30.90;95.60
19279;DHT22;9773;47.062;15.446;2023-07-16T10:23:43;30.90;95.90
19279;DHT22;9773;47.062;15.446;2023-07-16T10:26:11;31.00;96.50
19279;DHT22;9773;47.062;15.446;2023-07-16T10:28:38;30.80;95.00
19279;DHT22;9773;47.062;15.446;2023-07-16T10:31:03;30.80;94.50
19279;DHT22;9773;47.062;15.446;2023-07-16T10:33:29;30.80;94.40
19279;DHT22;9773;47.062;15.446;2023-07-16T10:35:58;30.80;95.00
19279;DHT22;9773;47.062;15.446;2023-07-16T10:38:24;30.90;95.70
19279;DHT22;9773;47.062;15.446;2023-07-16T10:40:50;30.90;95.50
19279;DHT22;9773;47.062;15.446;2023-07-16T10:43:16;31.00;95.40
19279;DHT22;9773;47.062;15.446;2023-07-16T10:45:42;31.00;95.40
19279;DHT22;9773;47.062;15.446;2023-07-16T10:48:07;31.00;94.60
19279;DHT22;9773;47.062;15.446;2023-07-16T10:50:34;30.90;94.40
19279;DHT22;9773;47.062;15.446;2023-07-16T10:53:01;30.80;94.40
19279;DHT22;9773;47.062;15.446;2023-07-16T10:55:28;30.60;94.30
19279;DHT22;9773;47.062;15.446;2023-07-16T10:57:54;30.60;93.90
19279;DHT22;9773;47.062;15.446;2023-07-16T11:00:21;30.50;94.10
19279;DHT22;9773;47.062;15.446;2023-07-16T11:02:50;30.60;94.20
19279;DHT22;9773;47.062;15.446;2023-07-16T11:05:18;30.50;94.50
19279;DHT22;9773;47.062;15.446;2023-07-16T11:07:48;30.60;94.60
19279;DHT22;9773;47.062;15.446;2023-07-16T11:10:18;30.60;95.20
19279;DHT22;9773;47.062;15.446;2023-07-16T11:12:44;30.60;94.70
19279;DHT22;9773;47.062;15.446;2023-07-16T11:15:10;30.60;94.60
19279;DHT22;9773;47.062;15.446;2023-07-16T11:17:39;30.70;95.30
19279;DHT22;9773;47.062;15.446;2023-07-16T11:20:08;30.80;95.30
19279;DHT22;9773;47.062;15.446;2023-07-16T11:22:37;30.80;95.60
19279;DHT22;9773;47.062;15.446;2023-07-16T11:25:10;30.80;95.40
19279;DHT22;9773;47.062;15.446;2023-07-16T11:27:36;30.80;94.60
19279;DHT22;9773;47.062;15.446;2023-07-16T11:30:02;30.90;94.70
19279;DHT22;9773;47.062;15.446;2023-07-16T11:32:38;31.10;95.30
19279;DHT22;9773;47.062;15.446;2023-07-16T11:35:07;31.20;95.30
19279;DHT22;9773;47.062;15.446;2023-07-16T11:37:34;31.30;95.60
19279;DHT22;9773;47.062;15.446;2023-07-16T11:40:05;31.30;95.30
19279;DHT22;9773;47.062;15.446;2023-07-16T11:42:35;31.30;94.50
19279;DHT22;9773;47.062;15.446;2023-07-16T11:45:02;31.30;94.20
19279;DHT22;9773;47.062;15.446;2023-07-16T11:47:28;31.20;93.70
19279;DHT22;9773;47.062;15.446;2023-07-16T11:49:54;31.20;93.40
19279;DHT22;9773;47.062;15.446;2023-07-16T11:52:23;31.00;93.80
19279;DHT22;9773;47.062;15.446;2023-07-16T11:54:49;31.00;94.50
19279;DHT22;9773;47.062;15.446;2023-07-16T11:57:15;31.20;94.80
19279;DHT22;9773;47.062;15.446;2023-07-16T11:59:41;31.40;94.90
19279;DHT22;9773;47.062;15.446;2023-07-16T12:02:07;31.50;94.00
19279;DHT22;9773;47.062;15.446;2023-07-16T12:04:34;31.70;93.90
19279;DHT22;9773;47.062;15.446;2023-07-16T12:07:00;31.80;94.20
19279;DHT22;9773;47.062;15.446;2023-07-16T12:09:25;31.80;93.70
19279;DHT22;9773;47.062;15.446;2023-07-16T12:11:51;31.90;93.10
19279;DHT22;9773;47.062;15.446;2023-07-16T12:14:17;32.10;92.80
19279;DHT22;9773;47.062;15.446;2023-07-16T12:16:43;32.10;93.80
19279;DHT22;9773;47.062;15.446;2023-07-16T12:19:09;32.20;94.30
19279;DHT22;9773;47.062;15.446;2023-07-16T12:21:35;32.30;94.40
19279;DHT22;9773;47.062;15.446;2023-07-16T12:24:01;32.40;94.90
19279;DHT22;9773;47.062;15.446;2023-07-16T12:26:28;32.40;93.80
19279;DHT22;9773;47.062;15.446;2023-07-16T12:28:54;32.50;93.20
19279;DHT22;9773;47.062;15.446;2023-07-16T12:31:19;32.40;93.80
19279;DHT22;9773;47.062;15.446;2023-07-16T12:33:48;32.10;94.60
19279;DHT22;9773;47.062;15.446;2023-07-16T12:36:15;32.10;94.20
19279;DHT22;9773;47.062;15.446;2023-07-16T12:38:41;32.20;94.10
19279;DHT22;9773;47.062;15.446;2023-07-16T12:41:07;32.30;94.30
19279;DHT22;9773;47.062;15.446;2023-07-16T12:43:33;32.30;94.20
19279;DHT22;9773;47.062;15.446;2023-07-16T12:46:03;32.30;95.40
19279;DHT22;9773;47.062;15.446;2023-07-16T12:48:30;32.30;94.70
19279;DHT22;9773;47.062;15.446;2023-07-16T12:50:56;32.20;94.00
19279;DHT22;9773;47.062;15.446;2023-07-16T12:53:22;32.30;93.90
19279;DHT22;9773;47.062;15.446;2023-07-16T12:55:48;32.40;93.60
19279;DHT22;9773;47.062;15.446;2023-07-16T12:58:14;32.50;92.70
19279;DHT22;9773;47.062;15.446;2023-07-16T13:00:40;32.50;92.60
19279;DHT22;9773;47.062;15.446;2023-07-16T13:03:06;32.50;92.50
19279;DHT22;9773;47.062;15.446;2023-07-16T13:05:35;32.60;92.80
19279;DHT22;9773;47.062;15.446;2023-07-16T13:08:01;32.60;92.40
19279;DHT22;9773;47.062;15.446;2023-07-16T13:10:27;32.60;93.20
19279;DHT22;9773;47.062;15.446;2023-07-16T13:12:53;32.50;93.00
19279;DHT22;9773;47.062;15.446;2023-07-16T13:15:19;32.50;93.10
19279;DHT22;9773;47.062;15.446;2023-07-16T13:17:45;32.40;93.00
19279;DHT22;9773;47.062;15.446;2023-07-16T13:20:13;32.40;93.10
19279;DHT22;9773;47.062;15.446;2023-07-16T13:22:39;32.40;93.40
19279;DHT22;9773;47.062;15.446;2023-07-16T13:25:05;32.30;93.00
19279;DHT22;9773;47.062;15.446;2023-07-16T13:27:31;32.20;92.70
19279;DHT22;9773;47.062;15.446;2023-07-16T13:29:58;32.20;93.00
19279;DHT22;9773;47.062;15.446;2023-07-16T13:32:24;32.30;93.30
19279;DHT22;9773;47.062;15.446;2023-07-16T13:34:50;32.40;93.70
19279;DHT22;9773;47.062;15.446;2023-07-16T13:37:16;32.40;94.00
19279;DHT22;9773;47.062;15.446;2023-07-16T13:39:42;32.40;94.60
19279;DHT22;9773;47.062;15.446;2023-07-16T13:42:08;32.40;94.50
19279;DHT22;9773;47.062;15.446;2023-07-16T13:44:36;32.40;94.50
19279;DHT22;9773;47.062;15.446;2023-07-16T13:47:03;32.30;94.30
19279;DHT22;9773;47.062;15.446;2023-07-16T13:49:29;32.20;94.20
19279;DHT22;9773;47.062;15.446;2023-07-16T13:51:55;32.20;94.30
19279;DHT22;9773;47.062;15.446;2023-07-16T13:54:22;32.10;94.50
19279;DHT22;9773;47.062;15.446;2023-07-16T13:56:48;32.30;94.00
19279;DHT22;9773;47.062;15.446;2023-07-16T13:59:14;32.10;95.30
19279;DHT22;9773;47.062;15.446;2023-07-16T14:01:41;32.00;95.50
19279;DHT22;9773;47.062;15.446;2023-07-16T14:04:07;32.00;96.00
19279;DHT22;9773;47.062;15.446;2023-07-16T14:06:34;31.80;96.10
19279;DHT22;9773;47.062;15.446;2023-07-16T14:09:00;31.80;96.40
19279;DHT22;9773;47.062;15.446;2023-07-16T14:11:26;31.70;96.70
19279;DHT22;9773;47.062;15.446;2023-07-16T14:13:53;31.80;96.60
19279;DHT22;9773;47.062;15.446;2023-07-16T14:16:20;31.80;96.50
19279;DHT22;9773;47.062;15.446;2023-07-16T14:18:51;31.90;95.60
19279;DHT22;9773;47.062;15.446;2023-07-16T14:21:20;31.90;95.60
19279;DHT22;9773;47.062;15.446;2023-07-16T14:23:46;31.90;95.60
19279;DHT22;9773;47.062;15.446;2023-07-16T14:26:12;31.90;95.50
19279;DHT22;9773;47.062;15.446;2023-07-16T14:28:38;31.90;95.60
19279;DHT22;9773;47.062;15.446;2023-07-16T14:31:04;32.00;95.00
19279;DHT22;9773;47.062;15.446;2023-07-16T14:33:31;31.90;95.60
19279;DHT22;9773;47.062;15.446;2023-07-16T14:35:58;31.80;95.50
19279;DHT22;9773;47.062;15.446;2023-07-16T14:38:24;31.80;95.40
19279;DHT22;9773;47.062;15.446;2023-07-16T14:40:50;31.90;95.50
19279;DHT22;9773;47.062;15.446;2023-07-16T14:43:18;31.90;95.50
19279;DHT22;9773;47.062;15.446;2023-07-16T14:45:45;32.10;95.60
19279;DHT22;9773;47.062;15.446;2023-07-16T14:48:11;32.10;95.20
19279;DHT22;9773;47.062;15.446;2023-07-16T14:50:37;32.10;95.60
19279;DHT22;9773;47.062;15.446;2023-07-16T14:53:04;32.00;95.30
19279;DHT22;9773;47.062;15.446;2023-07-16T14:55:30;31.90;94.90
19279;DHT22;9773;47.062;15.446;2023-07-16T14:57:56;31.90;94.90
19279;DHT22;9773;47.062;15.446;2023-07-16T15:00:23;31.80;95.50
19279;DHT22;9773;47.062;15.446;2023-07-16T15:02:49;31.80;95.10
19279;DHT22;9773;47.062;15.446;2023-07-16T15:05:16;31.80;94.90
19279;DHT22;9773;47.062;15.446;2023-07-16T15:07:42;31.60;95.20
19279;DHT22;9773;47.062;15.446;2023-07-16T15:10:08;31.70;95.30
19279;DHT22;9773;47.062;15.446;2023-07-16T15:12:35;31.70;95.30
19279;DHT22;9773;47.062;15.446;2023-07-16T15:15:01;31.60;95.30
19279;DHT22;9773;47.062;15.446;2023-07-16T15:17:27;31.60;95.30
19279;DHT22;9773;47.062;15.446;2023-07-16T15:19:53;31.60;95.60
19279;DHT22;9773;47.062;15.446;2023-07-16T15:22:19;31.60;95.60
19279;DHT22;9773;47.062;15.446;2023-07-16T15:24:49;31.60;95.30
19279;DHT22;9773;47.062;15.446;2023-07-16T15:27:16;31.40;95.00
19279;DHT22;9773;47.062;15.446;2023-07-16T15:29:43;31.40;95.20